sensor_id;sensor_type;location;lat;lon;timestamp;pressure;altitude;pressure_sealevel;temperature;humidity
69879;BME280;57161;43.136;24.706;2024-03-29T00:02:03;98842.44;;;11.69;64.68
69879;BME280;57161;43.136;24.706;2024-03-29T00:04:28;98855.13;;;11.70;64.56
69879;BME280;57161;43.136;24.706;2024-03-29T00:06:54;98849.91;;;11.74;64.17
69879;BME280;57161;43.136;24.706;2024-03-29T00:09:19;98838.34;;;11.62;64.07
69879;BME280;57161;43.136;24.706;2024-03-29T00:11:45;98846.38;;;11.66;63.99
69879;BME280;57161;43.136;24.706;2024-03-29T00:14:10;98838.72;;;11.59;63.91
69879;BME280;57161;43.136;24.706;2024-03-29T00:16:36;98835.38;;;11.60;63.60
69879;BME280;57161;43.136;24.706;2024-03-29T00:19:01;98842.66;;;11.79;63.02
69879;BME280;57161;43.136;24.706;2024-03-29T00:21:27;98842.47;;;11.84;63.16
69879;BME280;57161;43.136;24.706;2024-03-29T00:23:52;98842.66;;;11.79;63.29
69879;BME280;57161;43.136;24.706;2024-03-29T00:26:17;98850.66;;;11.75;63.71
69879;BME280;57161;43.136;24.706;2024-03-29T00:28:43;98843.56;;;11.66;63.87
69879;BME280;57161;43.136;24.706;2024-03-29T00:31:09;98851.78;;;11.64;63.90
69879;BME280;57161;43.136;24.706;2024-03-29T00:33:35;98855.13;;;11.55;64.22
69879;BME280;57161;43.136;24.706;2024-03-29T00:36:00;98859.44;;;11.56;64.01
69879;BME280;57161;43.136;24.706;2024-03-29T00:38:26;98843.19;;;11.54;64.07
69879;BME280;57161;43.136;24.706;2024-03-29T00:40:51;98827.72;;;11.46;63.97
69879;BME280;57161;43.136;24.706;2024-03-29T00:43:17;98842.66;;;11.56;64.10
69879;BME280;57161;43.136;24.706;2024-03-29T00:45:42;98839.47;;;11.59;63.67
69879;BME280;57161;43.136;24.706;2024-03-29T00:48:08;98842.25;;;11.52;63.71
69879;BME280;57161;43.136;24.706;2024-03-29T00:50:34;98851.78;;;11.49;63.95
69879;BME280;57161;43.136;24.706;2024-03-29T00:52:59;98831.25;;;11.38;63.95
69879;BME280;57161;43.136;24.706;2024-03-29T00:55:25;98852.72;;;11.43;64.52
69879;BME280;57161;43.136;24.706;2024-03-29T00:57:50;98860.34;;;11.35;65.07
69879;BME280;57161;43.136;24.706;2024-03-29T01:00:16;98863.13;;;11.28;65.52
69879;BME280;57161;43.136;24.706;2024-03-29T01:02:41;98867.78;;;11.18;65.72
69879;BME280;57161;43.136;24.706;2024-03-29T01:05:07;98866.84;;;11.07;66.26
69879;BME280;57161;43.136;24.706;2024-03-29T01:07:33;98882.09;;;10.99;66.78
69879;BME280;57161;43.136;24.706;2024-03-29T01:09:58;98857.56;;;10.69;67.06
69879;BME280;57161;43.136;24.706;2024-03-29T01:12:24;98880.56;;;10.90;66.79
69879;BME280;57161;43.136;24.706;2024-03-29T01:14:49;98880.22;;;10.94;66.35
69879;BME280;57161;43.136;24.706;2024-03-29T01:17:15;98870.28;;;10.85;65.88
69879;BME280;57161;43.136;24.706;2024-03-29T01:19:41;98895.50;;;10.93;66.30
69879;BME280;57161;43.136;24.706;2024-03-29T01:22:06;98901.66;;;10.99;66.06
69879;BME280;57161;43.136;24.706;2024-03-29T01:24:32;98901.88;;;11.08;65.79
69879;BME280;57161;43.136;24.706;2024-03-29T01:26:58;98894.06;;;11.15;65.56
69879;BME280;57161;43.136;24.706;2024-03-29T01:29:24;98899.97;;;11.03;65.81
69879;BME280;57161;43.136;24.706;2024-03-29T01:31:49;98911.34;;;11.05;65.90
69879;BME280;57161;43.136;24.706;2024-03-29T01:34:15;98900.34;;;10.92;65.85
69879;BME280;57161;43.136;24.706;2024-03-29T01:36:42;98915.44;;;10.97;66.08
69879;BME280;57161;43.136;24.706;2024-03-29T01:39:07;98888.00;;;10.88;65.79
69879;BME280;57161;43.136;24.706;2024-03-29T01:41:33;98931.66;;;10.98;65.96
69879;BME280;57161;43.136;24.706;2024-03-29T01:43:59;98931.28;;;10.94;66.11
69879;BME280;57161;43.136;24.706;2024-03-29T01:46:25;98936.66;;;10.92;66.21
69879;BME280;57161;43.136;24.706;2024-03-29T01:48:51;98924.47;;;10.74;66.27
69879;BME280;57161;43.136;24.706;2024-03-29T01:51:20;98942.94;;;10.77;66.44
69879;BME280;57161;43.136;24.706;2024-03-29T01:53:47;98942.31;;;10.71;66.84
69879;BME280;57161;43.136;24.706;2024-03-29T01:56:14;98948.28;;;10.68;66.91
69879;BME280;57161;43.136;24.706;2024-03-29T01:58:41;98949.56;;;10.67;66.86
69879;BME280;57161;43.136;24.706;2024-03-29T02:01:07;98949.78;;;10.69;66.91
69879;BME280;57161;43.136;24.706;2024-03-29T02:03:33;98957.75;;;10.65;67.04
69879;BME280;57161;43.136;24.706;2024-03-29T02:05:59;98968.13;;;10.57;67.60
69879;BME280;57161;43.136;24.706;2024-03-29T02:08:27;98952.44;;;10.46;67.92
69879;BME280;57161;43.136;24.706;2024-03-29T02:10:53;98963.47;;;10.51;67.82
69879;BME280;57161;43.136;24.706;2024-03-29T02:13:19;98975.38;;;10.52;67.23
69879;BME280;57161;43.136;24.706;2024-03-29T02:15:45;98990.06;;;10.45;67.30
69879;BME280;57161;43.136;24.706;2024-03-29T02:18:10;98968.19;;;10.36;66.93
69879;BME280;57161;43.136;24.706;2024-03-29T02:20:36;99005.91;;;10.50;66.71
69879;BME280;57161;43.136;24.706;2024-03-29T02:23:14;98994.00;;;10.49;66.42
69879;BME280;57161;43.136;24.706;2024-03-29T02:25:41;98994.34;;;10.46;66.44
69879;BME280;57161;43.136;24.706;2024-03-29T02:28:06;98998.28;;;10.50;65.76
69879;BME280;57161;43.136;24.706;2024-03-29T02:30:32;99001.81;;;10.51;66.04
69879;BME280;57161;43.136;24.706;2024-03-29T02:32:59;99011.50;;;10.50;66.26
69879;BME280;57161;43.136;24.706;2024-03-29T02:35:24;99021.81;;;10.34;66.90
69879;BME280;57161;43.136;24.706;2024-03-29T02:37:50;99010.84;;;10.36;66.70
69879;BME280;57161;43.136;24.706;2024-03-29T02:40:16;99016.16;;;10.27;66.68
69879;BME280;57161;43.136;24.706;2024-03-29T02:42:41;99021.75;;;10.27;67.10
69879;BME280;57161;43.136;24.706;2024-03-29T02:45:07;99021.25;;;10.15;67.55
69879;BME280;57161;43.136;24.706;2024-03-29T02:47:33;99024.78;;;10.15;67.68
69879;BME280;57161;43.136;24.706;2024-03-29T02:49:58;99027.59;;;10.15;67.56
69879;BME280;57161;43.136;24.706;2024-03-29T02:52:24;99028.25;;;10.08;67.69
69879;BME280;57161;43.136;24.706;2024-03-29T02:54:49;99024.09;;;10.02;68.03
69879;BME280;57161;43.136;24.706;2024-03-29T02:57:15;99037.31;;;10.01;67.55
69879;BME280;57161;43.136;24.706;2024-03-29T02:59:41;99024.50;;;9.85;67.75
69879;BME280;57161;43.136;24.706;2024-03-29T03:02:07;99034.22;;;9.91;68.29
69879;BME280;57161;43.136;24.706;2024-03-29T03:04:32;99038.88;;;9.89;68.31
69879;BME280;57161;43.136;24.706;2024-03-29T03:06:58;99045.34;;;9.84;68.48
69879;BME280;57161;43.136;24.706;2024-03-29T03:09:44;99047.72;;;9.80;68.83
69879;BME280;57161;43.136;24.706;2024-03-29T03:12:29;99053.31;;;9.80;68.71
69879;BME280;57161;43.136;24.706;2024-03-29T03:14:54;99062.53;;;9.75;68.56
69879;BME280;57161;43.136;24.706;2024-03-29T03:17:20;99063.63;;;9.72;68.85
69879;BME280;57161;43.136;24.706;2024-03-29T03:19:45;99055.94;;;9.65;68.94
69879;BME280;57161;43.136;24.706;2024-03-29T03:22:11;99063.53;;;9.64;69.33
69879;BME280;57161;43.136;24.706;2024-03-29T03:24:36;99066.22;;;9.56;69.49
69879;BME280;57161;43.136;24.706;2024-03-29T03:27:02;99078.88;;;9.57;69.39
69879;BME280;57161;43.136;24.706;2024-03-29T03:29:27;99068.38;;;9.63;68.85
69879;BME280;57161;43.136;24.706;2024-03-29T03:31:52;99078.56;;;9.61;68.73
69879;BME280;57161;43.136;24.706;2024-03-29T03:34:18;99083.91;;;9.59;68.69
69879;BME280;57161;43.136;24.706;2024-03-29T03:36:43;99079.75;;;9.52;68.90
69879;BME280;57161;43.136;24.706;2024-03-29T03:39:09;99082.75;;;9.54;68.59
69879;BME280;57161;43.136;24.706;2024-03-29T03:41:34;99071.22;;;9.37;68.99
69879;BME280;57161;43.136;24.706;2024-03-29T03:44:00;99084.28;;;9.42;69.02
69879;BME280;57161;43.136;24.706;2024-03-29T03:46:25;99086.63;;;9.51;68.55
69879;BME280;57161;43.136;24.706;2024-03-29T03:48:50;99092.44;;;9.40;68.91
69879;BME280;57161;43.136;24.706;2024-03-29T03:51:16;99092.22;;;9.38;69.09
69879;BME280;57161;43.136;24.706;2024-03-29T03:53:41;99102.75;;;9.45;68.83
69879;BME280;57161;43.136;24.706;2024-03-29T03:56:07;99104.03;;;9.44;68.66
69879;BME280;57161;43.136;24.706;2024-03-29T03:58:32;99114.53;;;9.38;68.83
69879;BME280;57161;43.136;24.706;2024-03-29T04:01:03;99113.16;;;9.31;69.06
69879;BME280;57161;43.136;24.706;2024-03-29T04:03:29;99117.97;;;9.31;69.15
69879;BME280;57161;43.136;24.706;2024-03-29T04:05:55;99118.94;;;9.33;69.08
69879;BME280;57161;43.136;24.706;2024-03-29T04:08:20;99128.94;;;9.29;69.18
69879;BME280;57161;43.136;24.706;2024-03-29T04:10:46;99130.53;;;9.24;69.26
69879;BME280;57161;43.136;24.706;2024-03-29T04:13:11;99141.88;;;9.26;69.03
69879;BME280;57161;43.136;24.706;2024-03-29T04:15:36;99144.03;;;9.33;68.58
69879;BME280;57161;43.136;24.706;2024-03-29T04:18:02;99155.31;;;9.28;68.68
69879;BME280;57161;43.136;24.706;2024-03-29T04:20:27;99159.81;;;9.31;68.58
69879;BME280;57161;43.136;24.706;2024-03-29T04:22:53;99146.06;;;9.20;68.54
69879;BME280;57161;43.136;24.706;2024-03-29T04:25:18;99168.47;;;9.41;68.15
69879;BME280;57161;43.136;24.706;2024-03-29T04:27:44;99170.97;;;9.44;68.04
69879;BME280;57161;43.136;24.706;2024-03-29T04:30:10;99167.41;;;9.44;67.87
69879;BME280;57161;43.136;24.706;2024-03-29T04:32:35;99184.78;;;9.63;67.26
69879;BME280;57161;43.136;24.706;2024-03-29T04:35:01;99191.53;;;9.68;66.97
69879;BME280;57161;43.136;24.706;2024-03-29T04:37:26;99188.13;;;9.61;66.93
69879;BME280;57161;43.136;24.706;2024-03-29T04:39:51;99196.16;;;9.65;67.11
69879;BME280;57161;43.136;24.706;2024-03-29T04:42:17;99209.78;;;9.69;66.94
69879;BME280;57161;43.136;24.706;2024-03-29T04:44:42;99214.28;;;9.72;66.51
69879;BME280;57161;43.136;24.706;2024-03-29T04:47:08;99210.53;;;9.69;66.53
69879;BME280;57161;43.136;24.706;2024-03-29T04:49:34;99219.31;;;9.73;66.35
69879;BME280;57161;43.136;24.706;2024-03-29T04:52:03;99224.25;;;9.80;66.27
69879;BME280;57161;43.136;24.706;2024-03-29T04:54:29;99232.63;;;9.80;66.19
69879;BME280;57161;43.136;24.706;2024-03-29T04:56:55;99235.50;;;9.88;66.07
69879;BME280;57161;43.136;24.706;2024-03-29T04:59:20;99232.94;;;9.77;66.24
69879;BME280;57161;43.136;24.706;2024-03-29T05:01:49;99239.38;;;9.85;66.24
69879;BME280;57161;43.136;24.706;2024-03-29T05:04:19;99241.41;;;9.71;66.89
69879;BME280;57161;43.136;24.706;2024-03-29T05:06:54;99234.44;;;9.78;66.73
69879;BME280;57161;43.136;24.706;2024-03-29T05:09:19;99246.47;;;9.73;66.63
69879;BME280;57161;43.136;24.706;2024-03-29T05:11:45;99257.63;;;9.86;66.54
69879;BME280;57161;43.136;24.706;2024-03-29T05:14:15;99257.28;;;9.89;66.35
69879;BME280;57161;43.136;24.706;2024-03-29T05:16:47;99254.06;;;9.99;66.38
69879;BME280;57161;43.136;24.706;2024-03-29T05:19:14;99265.97;;;10.12;66.06
69879;BME280;57161;43.136;24.706;2024-03-29T05:21:40;99263.94;;;10.13;66.13
69879;BME280;57161;43.136;24.706;2024-03-29T05:24:06;99267.00;;;10.36;65.76
69879;BME280;57161;43.136;24.706;2024-03-29T05:26:32;99276.13;;;10.49;65.63
69879;BME280;57161;43.136;24.706;2024-03-29T05:28:58;99278.78;;;10.55;65.02
69879;BME280;57161;43.136;24.706;2024-03-29T05:31:24;99280.91;;;10.62;64.98
69879;BME280;57161;43.136;24.706;2024-03-29T05:33:50;99292.66;;;10.81;64.77
69879;BME280;57161;43.136;24.706;2024-03-29T05:36:16;99278.97;;;10.91;64.74
69879;BME280;57161;43.136;24.706;2024-03-29T05:38:41;99286.72;;;11.06;64.41
69879;BME280;57161;43.136;24.706;2024-03-29T05:41:07;99282.56;;;11.20;64.03
69879;BME280;57161;43.136;24.706;2024-03-29T05:43:33;99292.47;;;11.42;62.96
69879;BME280;57161;43.136;24.706;2024-03-29T05:45:58;99295.66;;;11.46;62.89
69879;BME280;57161;43.136;24.706;2024-03-29T05:48:26;99300.00;;;11.55;62.19
69879;BME280;57161;43.136;24.706;2024-03-29T05:50:52;99289.28;;;11.66;62.13
69879;BME280;57161;43.136;24.706;2024-03-29T05:53:17;99293.69;;;11.83;63.01
69879;BME280;57161;43.136;24.706;2024-03-29T05:55:43;99300.69;;;11.97;62.14
69879;BME280;57161;43.136;24.706;2024-03-29T05:58:09;99298.13;;;12.07;61.72
69879;BME280;57161;43.136;24.706;2024-03-29T06:00:34;99305.69;;;12.27;61.21
69879;BME280;57161;43.136;24.706;2024-03-29T06:03:00;99263.22;;;12.08;60.89
69879;BME280;57161;43.136;24.706;2024-03-29T06:05:29;99308.06;;;12.59;60.34
69879;BME280;57161;43.136;24.706;2024-03-29T06:07:54;99304.00;;;12.75;59.48
69879;BME280;57161;43.136;24.706;2024-03-29T06:10:20;99302.69;;;12.84;59.96
69879;BME280;57161;43.136;24.706;2024-03-29T06:12:45;99313.78;;;13.05;59.14
69879;BME280;57161;43.136;24.706;2024-03-29T06:15:11;99312.66;;;13.15;58.38
69879;BME280;57161;43.136;24.706;2024-03-29T06:17:55;99310.28;;;13.42;57.67
69879;BME280;57161;43.136;24.706;2024-03-29T06:20:20;99299.06;;;13.58;57.32
69879;BME280;57161;43.136;24.706;2024-03-29T06:22:46;99314.56;;;13.74;57.37
69879;BME280;57161;43.136;24.706;2024-03-29T06:25:12;99314.53;;;13.97;56.27
69879;BME280;57161;43.136;24.706;2024-03-29T06:27:37;99315.59;;;14.24;55.84
69879;BME280;57161;43.136;24.706;2024-03-29T06:30:04;99322.28;;;14.44;55.61
69879;BME280;57161;43.136;24.706;2024-03-29T06:32:31;99322.56;;;14.63;55.12
69879;BME280;57161;43.136;24.706;2024-03-29T06:34:57;99319.16;;;14.73;54.09
69879;BME280;57161;43.136;24.706;2024-03-29T06:37:22;99319.09;;;14.88;53.63
69879;BME280;57161;43.136;24.706;2024-03-29T06:39:50;99330.91;;;15.19;53.31
69879;BME280;57161;43.136;24.706;2024-03-29T06:42:16;99331.28;;;15.40;52.27
69879;BME280;57161;43.136;24.706;2024-03-29T06:44:41;99327.78;;;15.57;52.05
69879;BME280;57161;43.136;24.706;2024-03-29T06:47:07;99329.28;;;15.83;51.28
69879;BME280;57161;43.136;24.706;2024-03-29T06:49:33;99318.94;;;16.03;51.05
69879;BME280;57161;43.136;24.706;2024-03-29T06:51:58;99331.38;;;16.34;49.26
69879;BME280;57161;43.136;24.706;2024-03-29T06:54:26;99334.56;;;16.65;47.42
69879;BME280;57161;43.136;24.706;2024-03-29T06:56:53;99340.69;;;16.89;47.67
69879;BME280;57161;43.136;24.706;2024-03-29T06:59:19;99346.38;;;16.98;47.73
69879;BME280;57161;43.136;24.706;2024-03-29T07:01:44;99347.66;;;17.15;47.56
69879;BME280;57161;43.136;24.706;2024-03-29T07:04:10;99343.63;;;17.45;44.31
69879;BME280;57161;43.136;24.706;2024-03-29T07:06:35;99344.13;;;17.60;45.98
69879;BME280;57161;43.136;24.706;2024-03-29T07:09:03;99338.91;;;17.93;42.79
69879;BME280;57161;43.136;24.706;2024-03-29T07:11:29;99347.97;;;18.21;40.42
69879;BME280;57161;43.136;24.706;2024-03-29T07:13:55;99334.88;;;18.54;39.69
69879;BME280;57161;43.136;24.706;2024-03-29T07:16:20;99348.56;;;18.87;39.07
69879;BME280;57161;43.136;24.706;2024-03-29T07:18:46;99352.22;;;19.18;38.21
69879;BME280;57161;43.136;24.706;2024-03-29T07:21:11;99360.94;;;19.42;37.54
69879;BME280;57161;43.136;24.706;2024-03-29T07:23:37;99353.84;;;19.62;37.52
69879;BME280;57161;43.136;24.706;2024-03-29T07:26:04;99373.94;;;19.76;37.43
69879;BME280;57161;43.136;24.706;2024-03-29T07:28:30;99360.00;;;19.90;36.63
69879;BME280;57161;43.136;24.706;2024-03-29T07:30:56;99360.59;;;20.09;36.82
69879;BME280;57161;43.136;24.706;2024-03-29T07:33:23;99366.16;;;20.50;35.70
69879;BME280;57161;43.136;24.706;2024-03-29T07:35:52;99366.19;;;20.62;35.68
69879;BME280;57161;43.136;24.706;2024-03-29T07:38:18;99367.47;;;20.71;35.55
69879;BME280;57161;43.136;24.706;2024-03-29T07:40:46;99373.78;;;20.81;35.20
69879;BME280;57161;43.136;24.706;2024-03-29T07:43:12;99362.34;;;20.90;34.86
69879;BME280;57161;43.136;24.706;2024-03-29T07:45:40;99371.38;;;20.98;35.18
69879;BME280;57161;43.136;24.706;2024-03-29T07:48:06;99364.75;;;21.17;34.63
69879;BME280;57161;43.136;24.706;2024-03-29T07:50:32;99367.22;;;21.23;33.88
69879;BME280;57161;43.136;24.706;2024-03-29T07:52:57;99363.91;;;21.26;35.03
69879;BME280;57161;43.136;24.706;2024-03-29T07:55:23;99374.66;;;21.28;34.47
69879;BME280;57161;43.136;24.706;2024-03-29T07:57:49;99386.44;;;21.46;33.88
69879;BME280;57161;43.136;24.706;2024-03-29T08:00:15;99371.59;;;21.47;34.06
69879;BME280;57161;43.136;24.706;2024-03-29T08:02:41;99388.31;;;21.53;34.53
69879;BME280;57161;43.136;24.706;2024-03-29T08:05:07;99385.69;;;21.57;33.87
69879;BME280;57161;43.136;24.706;2024-03-29T08:07:32;99394.72;;;21.53;33.67
69879;BME280;57161;43.136;24.706;2024-03-29T08:09:58;99405.47;;;21.55;33.60
69879;BME280;57161;43.136;24.706;2024-03-29T08:12:23;99389.53;;;21.62;33.63
69879;BME280;57161;43.136;24.706;2024-03-29T08:14:49;99388.56;;;21.69;34.03
69879;BME280;57161;43.136;24.706;2024-03-29T08:17:14;99391.00;;;21.74;33.16
69879;BME280;57161;43.136;24.706;2024-03-29T08:19:40;99389.78;;;21.66;34.06
69879;BME280;57161;43.136;24.706;2024-03-29T08:22:07;99388.91;;;21.75;34.24
69879;BME280;57161;43.136;24.706;2024-03-29T08:24:36;99394.97;;;21.81;34.52
69879;BME280;57161;43.136;24.706;2024-03-29T08:27:01;99385.56;;;21.90;34.11
69879;BME280;57161;43.136;24.706;2024-03-29T08:29:27;99401.03;;;21.99;33.53
69879;BME280;57161;43.136;24.706;2024-03-29T08:31:53;99385.94;;;22.08;33.94
69879;BME280;57161;43.136;24.706;2024-03-29T08:34:18;99377.16;;;22.15;33.29
69879;BME280;57161;43.136;24.706;2024-03-29T08:36:44;99389.63;;;22.22;32.89
69879;BME280;57161;43.136;24.706;2024-03-29T08:39:10;99378.88;;;22.21;32.24
69879;BME280;57161;43.136;24.706;2024-03-29T08:41:36;99377.03;;;22.13;32.67
69879;BME280;57161;43.136;24.706;2024-03-29T08:44:02;99378.25;;;22.10;32.50
69879;BME280;57161;43.136;24.706;2024-03-29T08:46:27;99381.09;;;22.10;32.29
69879;BME280;57161;43.136;24.706;2024-03-29T08:48:53;99389.16;;;22.14;31.46
69879;BME280;57161;43.136;24.706;2024-03-29T08:51:20;99384.69;;;22.11;31.40
69879;BME280;57161;43.136;24.706;2024-03-29T08:53:46;99378.53;;;22.14;32.58
69879;BME280;57161;43.136;24.706;2024-03-29T08:56:12;99387.13;;;22.28;32.58
69879;BME280;57161;43.136;24.706;2024-03-29T08:58:38;99386.53;;;22.30;32.13
69879;BME280;57161;43.136;24.706;2024-03-29T09:01:04;99378.47;;;22.26;32.20
69879;BME280;57161;43.136;24.706;2024-03-29T09:03:30;99383.06;;;22.31;31.55
69879;BME280;57161;43.136;24.706;2024-03-29T09:05:56;99377.38;;;22.31;30.75
69879;BME280;57161;43.136;24.706;2024-03-29T09:08:21;99370.44;;;22.34;31.52
69879;BME280;57161;43.136;24.706;2024-03-29T09:10:47;99368.03;;;22.42;32.23
69879;BME280;57161;43.136;24.706;2024-03-29T09:13:12;99371.34;;;22.51;31.96
69879;BME280;57161;43.136;24.706;2024-03-29T09:15:39;99372.81;;;22.63;31.67
69879;BME280;57161;43.136;24.706;2024-03-29T09:18:05;99370.06;;;22.65;32.32
69879;BME280;57161;43.136;24.706;2024-03-29T09:20:58;99354.78;;;22.72;31.28
69879;BME280;57161;43.136;24.706;2024-03-29T09:23:25;99343.63;;;22.76;31.38
69879;BME280;57161;43.136;24.706;2024-03-29T09:25:51;99342.75;;;22.86;32.15
69879;BME280;57161;43.136;24.706;2024-03-29T09:28:17;99338.00;;;22.90;30.97
69879;BME280;57161;43.136;24.706;2024-03-29T09:30:42;99337.84;;;23.00;30.76
69879;BME280;57161;43.136;24.706;2024-03-29T09:33:08;99340.22;;;22.92;31.13
69879;BME280;57161;43.136;24.706;2024-03-29T09:35:36;99327.75;;;22.85;31.42
69879;BME280;57161;43.136;24.706;2024-03-29T09:38:01;99326.09;;;22.94;32.18
69879;BME280;57161;43.136;24.706;2024-03-29T09:40:28;99334.47;;;23.03;32.35
69879;BME280;57161;43.136;24.706;2024-03-29T09:42:56;99330.59;;;23.24;32.02
69879;BME280;57161;43.136;24.706;2024-03-29T09:45:34;99332.06;;;23.25;32.00
69879;BME280;57161;43.136;24.706;2024-03-29T09:48:07;99321.31;;;23.24;31.77
69879;BME280;57161;43.136;24.706;2024-03-29T09:50:36;99317.81;;;23.25;31.94
69879;BME280;57161;43.136;24.706;2024-03-29T09:53:04;99319.44;;;23.28;31.79
69879;BME280;57161;43.136;24.706;2024-03-29T09:55:30;99316.78;;;23.32;31.61
69879;BME280;57161;43.136;24.706;2024-03-29T09:57:57;99320.16;;;23.43;31.40
69879;BME280;57161;43.136;24.706;2024-03-29T10:00:23;99314.03;;;23.34;31.60
69879;BME280;57161;43.136;24.706;2024-03-29T10:02:49;99312.47;;;23.45;31.79
69879;BME280;57161;43.136;24.706;2024-03-29T10:05:16;99304.66;;;23.46;31.17
69879;BME280;57161;43.136;24.706;2024-03-29T10:07:43;99306.34;;;23.51;30.95
69879;BME280;57161;43.136;24.706;2024-03-29T10:10:10;99306.19;;;23.60;30.42
69879;BME280;57161;43.136;24.706;2024-03-29T10:12:36;99299.59;;;23.58;31.20
69879;BME280;57161;43.136;24.706;2024-03-29T10:15:03;99305.63;;;23.64;30.96
69879;BME280;57161;43.136;24.706;2024-03-29T10:17:47;99298.75;;;23.69;30.58
69879;BME280;57161;43.136;24.706;2024-03-29T10:20:17;99302.06;;;23.77;30.71
69879;BME280;57161;43.136;24.706;2024-03-29T10:22:45;99302.47;;;23.58;31.96
69879;BME280;57161;43.136;24.706;2024-03-29T10:25:14;99294.50;;;23.56;32.17
69879;BME280;57161;43.136;24.706;2024-03-29T10:27:40;99292.63;;;23.47;31.65
69879;BME280;57161;43.136;24.706;2024-03-29T10:30:09;99300.34;;;23.45;31.87
69879;BME280;57161;43.136;24.706;2024-03-29T10:32:39;99300.97;;;23.43;31.45
69879;BME280;57161;43.136;24.706;2024-03-29T10:35:08;99296.50;;;23.40;30.75
69879;BME280;57161;43.136;24.706;2024-03-29T10:37:34;99300.00;;;23.39;31.20
69879;BME280;57161;43.136;24.706;2024-03-29T10:40:08;99295.47;;;23.47;31.12
69879;BME280;57161;43.136;24.706;2024-03-29T10:42:36;99307.41;;;23.57;31.64
69879;BME280;57161;43.136;24.706;2024-03-29T10:45:02;99293.66;;;23.54;31.29
69879;BME280;57161;43.136;24.706;2024-03-29T10:47:30;99281.84;;;23.46;31.21
69879;BME280;57161;43.136;24.706;2024-03-29T10:49:58;99298.75;;;23.69;31.24
69879;BME280;57161;43.136;24.706;2024-03-29T10:52:25;99296.44;;;23.79;30.90
69879;BME280;57161;43.136;24.706;2024-03-29T10:54:52;99293.69;;;23.81;30.53
69879;BME280;57161;43.136;24.706;2024-03-29T10:57:25;99263.81;;;23.69;30.81
69879;BME280;57161;43.136;24.706;2024-03-29T11:05:09;99283.75;;;23.82;31.72
69879;BME280;57161;43.136;24.706;2024-03-29T11:07:40;99268.13;;;23.83;31.98
69879;BME280;57161;43.136;24.706;2024-03-29T11:10:13;99255.50;;;24.02;31.90
69879;BME280;57161;43.136;24.706;2024-03-29T11:12:50;99259.28;;;24.07;31.12
69879;BME280;57161;43.136;24.706;2024-03-29T11:15:28;99260.44;;;24.15;31.15
69879;BME280;57161;43.136;24.706;2024-03-29T11:17:55;99268.44;;;24.19;30.94
69879;BME280;57161;43.136;24.706;2024-03-29T11:20:23;99266.13;;;24.29;30.41
69879;BME280;57161;43.136;24.706;2024-03-29T11:22:55;99252.03;;;24.33;30.65
69879;BME280;57161;43.136;24.706;2024-03-29T11:25:22;99251.44;;;24.50;30.90
69879;BME280;57161;43.136;24.706;2024-03-29T11:27:47;99252.25;;;24.53;31.26
69879;BME280;57161;43.136;24.706;2024-03-29T11:30:17;99255.34;;;24.57;31.22
69879;BME280;57161;43.136;24.706;2024-03-29T11:32:43;99242.53;;;24.29;31.35
69879;BME280;57161;43.136;24.706;2024-03-29T11:35:15;99246.66;;;24.25;31.50
69879;BME280;57161;43.136;24.706;2024-03-29T11:37:41;99234.59;;;24.27;31.58
69879;BME280;57161;43.136;24.706;2024-03-29T11:40:10;99256.38;;;24.34;32.12
69879;BME280;57161;43.136;24.706;2024-03-29T11:42:47;99244.50;;;24.10;31.90
69879;BME280;57161;43.136;24.706;2024-03-29T11:45:12;99235.28;;;24.12;32.19
69879;BME280;57161;43.136;24.706;2024-03-29T11:47:39;99234.09;;;24.17;31.97
69879;BME280;57161;43.136;24.706;2024-03-29T11:50:08;99236.94;;;24.17;32.11
69879;BME280;57161;43.136;24.706;2024-03-29T11:52:34;99235.94;;;24.40;32.11
69879;BME280;57161;43.136;24.706;2024-03-29T11:54:59;99225.56;;;24.46;32.12
69879;BME280;57161;43.136;24.706;2024-03-29T11:57:25;99240.09;;;24.52;31.42
69879;BME280;57161;43.136;24.706;2024-03-29T11:59:50;99225.38;;;24.42;31.60
69879;BME280;57161;43.136;24.706;2024-03-29T12:02:16;99231.97;;;24.31;31.80
69879;BME280;57161;43.136;24.706;2024-03-29T12:04:42;99230.78;;;24.36;31.78
69879;BME280;57161;43.136;24.706;2024-03-29T12:07:07;99233.81;;;24.40;31.81
69879;BME280;57161;43.136;24.706;2024-03-29T12:09:33;99231.06;;;24.42;31.58
69879;BME280;57161;43.136;24.706;2024-03-29T12:11:58;99238.53;;;24.49;31.52
69879;BME280;57161;43.136;24.706;2024-03-29T12:14:31;99228.13;;;24.56;32.15
69879;BME280;57161;43.136;24.706;2024-03-29T12:17:01;99212.50;;;24.57;31.16
69879;BME280;57161;43.136;24.706;2024-03-29T12:19:27;99220.69;;;24.65;32.02
69879;BME280;57161;43.136;24.706;2024-03-29T12:21:54;99225.41;;;24.74;31.37
69879;BME280;57161;43.136;24.706;2024-03-29T12:24:20;99222.91;;;24.66;31.62
69879;BME280;57161;43.136;24.706;2024-03-29T12:26:48;99198.66;;;24.51;31.40
69879;BME280;57161;43.136;24.706;2024-03-29T12:29:13;99216.09;;;24.73;31.25
69879;BME280;57161;43.136;24.706;2024-03-29T12:31:39;99217.03;;;24.78;31.23
69879;BME280;57161;43.136;24.706;2024-03-29T12:34:04;99206.16;;;24.74;31.07
69879;BME280;57161;43.136;24.706;2024-03-29T12:36:32;99214.91;;;24.94;31.08
69879;BME280;57161;43.136;24.706;2024-03-29T12:38:58;99217.94;;;24.98;30.65
69879;BME280;57161;43.136;24.706;2024-03-29T12:41:31;99224.22;;;24.95;31.20
69879;BME280;57161;43.136;24.706;2024-03-29T12:43:58;99216.66;;;25.01;30.80
69879;BME280;57161;43.136;24.706;2024-03-29T12:46:24;99210.00;;;24.97;30.42
69879;BME280;57161;43.136;24.706;2024-03-29T12:49:00;99219.06;;;25.07;30.63
69879;BME280;57161;43.136;24.706;2024-03-29T12:51:29;99221.44;;;25.28;30.89
69879;BME280;57161;43.136;24.706;2024-03-29T12:53:55;99222.72;;;25.41;30.37
69879;BME280;57161;43.136;24.706;2024-03-29T12:56:22;99218.28;;;25.38;29.74